sensor_id;sensor_type;location;lat;lon;timestamp;temperature;humidity
56172;DHT22;42052;41.634;-0.946;2022-12-20T00:02:29;22.20;46.80
56172;DHT22;42052;41.634;-0.946;2022-12-20T00:05:15;22.10;46.90
56172;DHT22;42052;41.634;-0.946;2022-12-20T00:08:01;22.20;46.90
56172;DHT22;42052;41.634;-0.946;2022-12-20T00:10:47;22.10;46.80
56172;DHT22;42052;41.634;-0.946;2022-12-20T00:13:33;22.10;46.90
56172;DHT22;42052;41.634;-0.946;2022-12-20T00:16:22;22.10;46.90
56172;DHT22;42052;41.634;-0.946;2022-12-20T00:19:10;22.10;46.90
56172;DHT22;42052;41.634;-0.946;2022-12-20T00:21:56;22.10;46.90
56172;DHT22;42052;41.634;-0.946;2022-12-20T00:24:43;22.10;47.00
56172;DHT22;42052;41.634;-0.946;2022-12-20T00:27:29;22.10;47.00
56172;DHT22;42052;41.634;-0.946;2022-12-20T00:30:15;22.10;47.00
56172;DHT22;42052;41.634;-0.946;2022-12-20T00:33:02;22.00;46.90
56172;DHT22;42052;41.634;-0.946;2022-12-20T00:35:48;22.00;47.00
56172;DHT22;42052;41.634;-0.946;2022-12-20T00:38:34;22.00;47.00
56172;DHT22;42052;41.634;-0.946;2022-12-20T00:41:23;22.00;47.10
56172;DHT22;42052;41.634;-0.946;2022-12-20T00:44:09;22.00;47.00
56172;DHT22;42052;41.634;-0.946;2022-12-20T00:46:55;22.00;47.00
56172;DHT22;42052;41.634;-0.946;2022-12-20T00:49:41;22.00;47.00
56172;DHT22;42052;41.634;-0.946;2022-12-20T00:52:27;22.00;47.00
56172;DHT22;42052;41.634;-0.946;2022-12-20T00:55:14;22.00;47.00
56172;DHT22;42052;41.634;-0.946;2022-12-20T00:58:00;22.00;46.90
56172;DHT22;42052;41.634;-0.946;2022-12-20T01:00:46;22.00;47.00
56172;DHT22;42052;41.634;-0.946;2022-12-20T01:03:33;22.00;46.80
56172;DHT22;42052;41.634;-0.946;2022-12-20T01:06:19;22.20;46.70
56172;DHT22;42052;41.634;-0.946;2022-12-20T01:09:06;22.20;46.60
56172;DHT22;42052;41.634;-0.946;2022-12-20T01:11:52;22.30;46.50
56172;DHT22;42052;41.634;-0.946;2022-12-20T01:14:38;22.30;46.40
56172;DHT22;42052;41.634;-0.946;2022-12-20T01:17:24;22.30;46.40
56172;DHT22;42052;41.634;-0.946;2022-12-20T01:20:10;22.40;46.30
56172;DHT22;42052;41.634;-0.946;2022-12-20T01:22:56;22.50;45.90
56172;DHT22;42052;41.634;-0.946;2022-12-20T01:25:43;22.60;45.70
56172;DHT22;42052;41.634;-0.946;2022-12-20T01:28:30;22.40;46.00
56172;DHT22;42052;41.634;-0.946;2022-12-20T01:31:18;22.30;46.30
56172;DHT22;42052;41.634;-0.946;2022-12-20T01:34:04;22.20;46.40
56172;DHT22;42052;41.634;-0.946;2022-12-20T01:36:51;22.20;46.60
56172;DHT22;42052;41.634;-0.946;2022-12-20T01:39:37;22.20;46.70
56172;DHT22;42052;41.634;-0.946;2022-12-20T01:42:23;22.10;46.80
56172;DHT22;42052;41.634;-0.946;2022-12-20T01:45:19;22.10;46.80
56172;DHT22;42052;41.634;-0.946;2022-12-20T01:48:09;22.00;46.90
56172;DHT22;42052;41.634;-0.946;2022-12-20T01:50:56;22.00;46.90
56172;DHT22;42052;41.634;-0.946;2022-12-20T01:53:42;22.00;47.00
56172;DHT22;42052;41.634;-0.946;2022-12-20T01:56:28;22.00;47.00
56172;DHT22;42052;41.634;-0.946;2022-12-20T01:59:14;22.00;47.20
56172;DHT22;42052;41.634;-0.946;2022-12-20T02:02:03;22.00;47.10
56172;DHT22;42052;41.634;-0.946;2022-12-20T02:04:50;22.00;47.00
56172;DHT22;42052;41.634;-0.946;2022-12-20T02:07:36;21.90;47.00
56172;DHT22;42052;41.634;-0.946;2022-12-20T02:10:28;21.90;47.00
56172;DHT22;42052;41.634;-0.946;2022-12-20T02:13:30;21.90;47.10
56172;DHT22;42052;41.634;-0.946;2022-12-20T02:16:23;21.90;47.10
56172;DHT22;42052;41.634;-0.946;2022-12-20T02:31:19;21.90;47.10
56172;DHT22;42052;41.634;-0.946;2022-12-20T02:34:08;21.90;47.10
56172;DHT22;42052;41.634;-0.946;2022-12-20T02:36:55;21.80;47.20
56172;DHT22;42052;41.634;-0.946;2022-12-20T02:39:43;21.80;47.10
56172;DHT22;42052;41.634;-0.946;2022-12-20T02:42:32;21.80;47.30
56172;DHT22;42052;41.634;-0.946;2022-12-20T02:45:19;21.80;47.50
56172;DHT22;42052;41.634;-0.946;2022-12-20T02:48:09;21.80;47.30
56172;DHT22;42052;41.634;-0.946;2022-12-20T02:50:57;21.90;47.20
56172;DHT22;42052;41.634;-0.946;2022-12-20T02:53:45;21.80;47.30
56172;DHT22;42052;41.634;-0.946;2022-12-20T02:56:32;21.80;48.10
56172;DHT22;42052;41.634;-0.946;2022-12-20T02:59:23;21.90;47.40
56172;DHT22;42052;41.634;-0.946;2022-12-20T03:02:11;21.80;47.30
56172;DHT22;42052;41.634;-0.946;2022-12-20T03:04:58;21.80;47.30
56172;DHT22;42052;41.634;-0.946;2022-12-20T03:07:44;21.80;47.30
56172;DHT22;42052;41.634;-0.946;2022-12-20T03:10:30;21.80;48.20
56172;DHT22;42052;41.634;-0.946;2022-12-20T03:13:16;21.80;47.40
56172;DHT22;42052;41.634;-0.946;2022-12-20T03:16:03;21.80;47.30
56172;DHT22;42052;41.634;-0.946;2022-12-20T03:18:49;21.90;47.20
56172;DHT22;42052;41.634;-0.946;2022-12-20T03:21:35;21.90;47.20
56172;DHT22;42052;41.634;-0.946;2022-12-20T03:24:21;21.90;47.00
56172;DHT22;42052;41.634;-0.946;2022-12-20T03:27:07;21.90;47.10
56172;DHT22;42052;41.634;-0.946;2022-12-20T03:29:54;21.90;47.10
56172;DHT22;42052;41.634;-0.946;2022-12-20T03:32:40;21.80;47.30
56172;DHT22;42052;41.634;-0.946;2022-12-20T03:35:26;21.90;47.30
56172;DHT22;42052;41.634;-0.946;2022-12-20T03:38:12;21.80;47.30
56172;DHT22;42052;41.634;-0.946;2022-12-20T03:40:58;21.80;47.30
56172;DHT22;42052;41.634;-0.946;2022-12-20T03:43:49;21.80;47.30
56172;DHT22;42052;41.634;-0.946;2022-12-20T03:46:35;21.80;47.40
56172;DHT22;42052;41.634;-0.946;2022-12-20T03:49:21;21.80;47.30
56172;DHT22;42052;41.634;-0.946;2022-12-20T03:52:12;21.80;47.30
56172;DHT22;42052;41.634;-0.946;2022-12-20T03:54:59;21.70;47.30
56172;DHT22;42052;41.634;-0.946;2022-12-20T03:57:45;21.70;47.40
56172;DHT22;42052;41.634;-0.946;2022-12-20T04:00:31;21.80;48.20
56172;DHT22;42052;41.634;-0.946;2022-12-20T04:03:17;21.70;47.30
56172;DHT22;42052;41.634;-0.946;2022-12-20T04:06:03;21.70;47.40
56172;DHT22;42052;41.634;-0.946;2022-12-20T04:08:49;21.70;47.30
56172;DHT22;42052;41.634;-0.946;2022-12-20T04:11:35;21.70;47.40
56172;DHT22;42052;41.634;-0.946;2022-12-20T04:14:21;21.70;47.40
56172;DHT22;42052;41.634;-0.946;2022-12-20T04:17:07;21.70;47.50
56172;DHT22;42052;41.634;-0.946;2022-12-20T04:19:53;21.70;47.40
56172;DHT22;42052;41.634;-0.946;2022-12-20T04:22:39;21.70;47.40
56172;DHT22;42052;41.634;-0.946;2022-12-20T04:25:25;21.70;47.40
56172;DHT22;42052;41.634;-0.946;2022-12-20T04:28:11;21.70;47.40
56172;DHT22;42052;41.634;-0.946;2022-12-20T04:30:58;21.70;47.40
56172;DHT22;42052;41.634;-0.946;2022-12-20T04:33:45;21.70;47.30
56172;DHT22;42052;41.634;-0.946;2022-12-20T04:36:31;21.70;48.10
56172;DHT22;42052;41.634;-0.946;2022-12-20T04:39:17;21.70;47.30
56172;DHT22;42052;41.634;-0.946;2022-12-20T04:42:03;21.70;47.30
56172;DHT22;42052;41.634;-0.946;2022-12-20T04:44:49;21.70;47.30
56172;DHT22;42052;41.634;-0.946;2022-12-20T04:47:35;21.70;47.30
56172;DHT22;42052;41.634;-0.946;2022-12-20T04:50:21;21.70;47.20
56172;DHT22;42052;41.634;-0.946;2022-12-20T04:53:10;21.70;47.10
56172;DHT22;42052;41.634;-0.946;2022-12-20T04:56:24;21.80;47.40
56172;DHT22;42052;41.634;-0.946;2022-12-20T04:59:12;21.70;47.50
56172;DHT22;42052;41.634;-0.946;2022-12-20T05:01:58;21.70;47.40
56172;DHT22;42052;41.634;-0.946;2022-12-20T05:04:44;21.80;47.40
56172;DHT22;42052;41.634;-0.946;2022-12-20T05:07:30;21.80;47.40
56172;DHT22;42052;41.634;-0.946;2022-12-20T05:10:16;21.70;47.50
56172;DHT22;42052;41.634;-0.946;2022-12-20T05:13:02;21.70;47.50
56172;DHT22;42052;41.634;-0.946;2022-12-20T05:15:53;21.80;47.40
56172;DHT22;42052;41.634;-0.946;2022-12-20T05:18:39;21.80;47.50
56172;DHT22;42052;41.634;-0.946;2022-12-20T05:21:25;21.80;47.50
56172;DHT22;42052;41.634;-0.946;2022-12-20T05:24:30;21.70;47.40
56172;DHT22;42052;41.634;-0.946;2022-12-20T05:27:34;21.70;47.40
56172;DHT22;42052;41.634;-0.946;2022-12-20T05:30:21;21.80;47.40
56172;DHT22;42052;41.634;-0.946;2022-12-20T05:33:07;21.80;47.10
56172;DHT22;42052;41.634;-0.946;2022-12-20T05:35:53;21.80;47.10
56172;DHT22;42052;41.634;-0.946;2022-12-20T05:38:39;21.80;47.30
56172;DHT22;42052;41.634;-0.946;2022-12-20T05:41:25;21.80;47.30
56172;DHT22;42052;41.634;-0.946;2022-12-20T05:44:11;21.80;47.20
56172;DHT22;42052;41.634;-0.946;2022-12-20T05:46:58;21.80;47.20
56172;DHT22;42052;41.634;-0.946;2022-12-20T05:49:44;21.80;47.20
56172;DHT22;42052;41.634;-0.946;2022-12-20T05:52:30;21.80;47.10
56172;DHT22;42052;41.634;-0.946;2022-12-20T05:55:16;21.80;47.10
56172;DHT22;42052;41.634;-0.946;2022-12-20T05:58:02;21.90;47.10
56172;DHT22;42052;41.634;-0.946;2022-12-20T06:00:48;21.90;47.10
56172;DHT22;42052;41.634;-0.946;2022-12-20T06:03:35;21.90;47.00
56172;DHT22;42052;41.634;-0.946;2022-12-20T06:06:22;21.90;46.90
56172;DHT22;42052;41.634;-0.946;2022-12-20T06:09:08;22.00;46.90
56172;DHT22;42052;41.634;-0.946;2022-12-20T06:11:54;21.90;47.20
56172;DHT22;42052;41.634;-0.946;2022-12-20T06:14:40;21.90;47.30
56172;DHT22;42052;41.634;-0.946;2022-12-20T06:17:26;21.90;48.10
56172;DHT22;42052;41.634;-0.946;2022-12-20T06:20:12;22.00;47.20
56172;DHT22;42052;41.634;-0.946;2022-12-20T06:22:58;21.90;47.10
56172;DHT22;42052;41.634;-0.946;2022-12-20T06:25:45;21.90;47.00
56172;DHT22;42052;41.634;-0.946;2022-12-20T06:28:31;22.00;47.10
56172;DHT22;42052;41.634;-0.946;2022-12-20T06:31:17;21.90;47.00
56172;DHT22;42052;41.634;-0.946;2022-12-20T06:34:03;22.00;47.00
56172;DHT22;42052;41.634;-0.946;2022-12-20T06:36:50;22.00;47.00
56172;DHT22;42052;41.634;-0.946;2022-12-20T06:39:36;22.00;46.90
56172;DHT22;42052;41.634;-0.946;2022-12-20T06:42:22;22.00;46.80
56172;DHT22;42052;41.634;-0.946;2022-12-20T06:45:09;22.10;46.90
56172;DHT22;42052;41.634;-0.946;2022-12-20T06:47:56;22.00;47.00
56172;DHT22;42052;41.634;-0.946;2022-12-20T06:50:42;22.00;47.00
56172;DHT22;42052;41.634;-0.946;2022-12-20T06:53:28;22.00;47.10
56172;DHT22;42052;41.634;-0.946;2022-12-20T06:56:15;21.90;47.10
56172;DHT22;42052;41.634;-0.946;2022-12-20T06:59:01;21.80;47.90
56172;DHT22;42052;41.634;-0.946;2022-12-20T07:01:47;21.90;47.20
56172;DHT22;42052;41.634;-0.946;2022-12-20T07:04:33;21.90;47.10
56172;DHT22;42052;41.634;-0.946;2022-12-20T07:07:19;21.90;47.10
56172;DHT22;42052;41.634;-0.946;2022-12-20T07:10:06;21.90;47.10
56172;DHT22;42052;41.634;-0.946;2022-12-20T07:12:52;21.90;47.00
56172;DHT22;42052;41.634;-0.946;2022-12-20T07:15:38;21.90;47.10
56172;DHT22;42052;41.634;-0.946;2022-12-20T07:18:24;21.90;47.00
56172;DHT22;42052;41.634;-0.946;2022-12-20T07:21:10;21.90;47.10
56172;DHT22;42052;41.634;-0.946;2022-12-20T07:23:58;21.90;47.20
56172;DHT22;42052;41.634;-0.946;2022-12-20T07:26:44;21.80;47.10
56172;DHT22;42052;41.634;-0.946;2022-12-20T07:29:31;21.90;47.10
56172;DHT22;42052;41.634;-0.946;2022-12-20T07:32:17;21.90;47.10
56172;DHT22;42052;41.634;-0.946;2022-12-20T07:35:03;21.90;47.00
56172;DHT22;42052;41.634;-0.946;2022-12-20T07:37:49;21.90;47.00
56172;DHT22;42052;41.634;-0.946;2022-12-20T07:40:35;21.90;47.00
56172;DHT22;42052;41.634;-0.946;2022-12-20T07:43:21;21.90;47.00
56172;DHT22;42052;41.634;-0.946;2022-12-20T07:46:08;21.90;46.90
56172;DHT22;42052;41.634;-0.946;2022-12-20T07:48:56;21.90;47.00
56172;DHT22;42052;41.634;-0.946;2022-12-20T07:51:48;21.80;47.00
56172;DHT22;42052;41.634;-0.946;2022-12-20T07:54:44;21.90;47.00
56172;DHT22;42052;41.634;-0.946;2022-12-20T07:57:35;21.80;46.90
56172;DHT22;42052;41.634;-0.946;2022-12-20T08:00:21;21.80;47.00
56172;DHT22;42052;41.634;-0.946;2022-12-20T08:03:18;21.80;46.90
56172;DHT22;42052;41.634;-0.946;2022-12-20T08:06:06;21.80;46.90
56172;DHT22;42052;41.634;-0.946;2022-12-20T08:08:57;21.80;46.90
56172;DHT22;42052;41.634;-0.946;2022-12-20T08:11:46;21.80;46.90
56172;DHT22;42052;41.634;-0.946;2022-12-20T08:14:33;21.80;46.90
56172;DHT22;42052;41.634;-0.946;2022-12-20T08:17:19;21.80;46.90
56172;DHT22;42052;41.634;-0.946;2022-12-20T08:20:06;21.80;46.90
56172;DHT22;42052;41.634;-0.946;2022-12-20T08:22:53;21.80;46.90
56172;DHT22;42052;41.634;-0.946;2022-12-20T08:25:39;21.80;46.90
56172;DHT22;42052;41.634;-0.946;2022-12-20T08:28:25;21.80;46.90
56172;DHT22;42052;41.634;-0.946;2022-12-20T08:31:11;21.80;47.00
56172;DHT22;42052;41.634;-0.946;2022-12-20T08:33:57;21.80;47.00
56172;DHT22;42052;41.634;-0.946;2022-12-20T08:36:44;21.80;46.90
56172;DHT22;42052;41.634;-0.946;2022-12-20T08:39:30;21.80;46.90
56172;DHT22;42052;41.634;-0.946;2022-12-20T08:42:16;21.80;46.90
56172;DHT22;42052;41.634;-0.946;2022-12-20T08:45:02;21.80;46.90
56172;DHT22;42052;41.634;-0.946;2022-12-20T08:47:48;21.80;46.90
56172;DHT22;42052;41.634;-0.946;2022-12-20T08:50:34;21.80;46.90
56172;DHT22;42052;41.634;-0.946;2022-12-20T08:53:21;21.80;46.80
56172;DHT22;42052;41.634;-0.946;2022-12-20T08:56:10;21.80;46.90
56172;DHT22;42052;41.634;-0.946;2022-12-20T08:58:57;21.80;46.80
56172;DHT22;42052;41.634;-0.946;2022-12-20T09:01:43;21.90;46.80
56172;DHT22;42052;41.634;-0.946;2022-12-20T09:04:29;21.90;46.80
56172;DHT22;42052;41.634;-0.946;2022-12-20T09:07:15;21.90;46.70
56172;DHT22;42052;41.634;-0.946;2022-12-20T09:10:02;21.80;46.70
56172;DHT22;42052;41.634;-0.946;2022-12-20T09:12:48;21.80;46.80
56172;DHT22;42052;41.634;-0.946;2022-12-20T09:15:34;21.80;46.80
56172;DHT22;42052;41.634;-0.946;2022-12-20T09:18:21;21.70;46.80
56172;DHT22;42052;41.634;-0.946;2022-12-20T09:21:08;21.70;46.80
56172;DHT22;42052;41.634;-0.946;2022-12-20T09:23:55;21.70;46.80
56172;DHT22;42052;41.634;-0.946;2022-12-20T09:26:41;21.80;46.90
56172;DHT22;42052;41.634;-0.946;2022-12-20T09:29:27;21.70;46.80
56172;DHT22;42052;41.634;-0.946;2022-12-20T09:32:13;21.80;46.90
56172;DHT22;42052;41.634;-0.946;2022-12-20T09:34:59;21.80;46.80
56172;DHT22;42052;41.634;-0.946;2022-12-20T09:37:45;21.90;46.70
56172;DHT22;42052;41.634;-0.946;2022-12-20T09:40:31;21.80;46.60
56172;DHT22;42052;41.634;-0.946;2022-12-20T09:43:18;21.80;46.60
56172;DHT22;42052;41.634;-0.946;2022-12-20T09:46:05;21.80;46.60
56172;DHT22;42052;41.634;-0.946;2022-12-20T09:48:52;21.90;46.70
56172;DHT22;42052;41.634;-0.946;2022-12-20T09:54:39;21.80;46.60
56172;DHT22;42052;41.634;-0.946;2022-12-20T10:00:43;21.80;46.60
56172;DHT22;42052;41.634;-0.946;2022-12-20T10:03:31;21.80;46.70
56172;DHT22;42052;41.634;-0.946;2022-12-20T10:15:37;21.80;46.60
56172;DHT22;42052;41.634;-0.946;2022-12-20T10:24:34;21.80;46.60
56172;DHT22;42052;41.634;-0.946;2022-12-20T10:27:21;21.90;46.50
56172;DHT22;42052;41.634;-0.946;2022-12-20T10:30:33;21.80;46.50
56172;DHT22;42052;41.634;-0.946;2022-12-20T10:33:22;21.80;46.50
56172;DHT22;42052;41.634;-0.946;2022-12-20T10:39:10;21.80;46.60
56172;DHT22;42052;41.634;-0.946;2022-12-20T10:41:56;21.80;46.50
56172;DHT22;42052;41.634;-0.946;2022-12-20T10:44:43;21.80;46.50
56172;DHT22;42052;41.634;-0.946;2022-12-20T10:47:39;21.80;46.50
56172;DHT22;42052;41.634;-0.946;2022-12-20T10:50:26;21.80;46.50
56172;DHT22;42052;41.634;-0.946;2022-12-20T10:53:20;21.80;46.60
56172;DHT22;42052;41.634;-0.946;2022-12-20T10:56:20;21.80;46.50
56172;DHT22;42052;41.634;-0.946;2022-12-20T11:02:26;21.80;46.50
56172;DHT22;42052;41.634;-0.946;2022-12-20T11:08:15;21.80;46.60
56172;DHT22;42052;41.634;-0.946;2022-12-20T11:11:19;21.80;46.60
56172;DHT22;42052;41.634;-0.946;2022-12-20T11:14:14;21.80;46.50
56172;DHT22;42052;41.634;-0.946;2022-12-20T11:17:12;21.90;46.50
56172;DHT22;42052;41.634;-0.946;2022-12-20T11:29:32;21.80;46.50
56172;DHT22;42052;41.634;-0.946;2022-12-20T11:32:46;21.80;46.40
56172;DHT22;42052;41.634;-0.946;2022-12-20T11:38:47;21.90;46.40
56172;DHT22;42052;41.634;-0.946;2022-12-20T11:54:10;21.80;46.40
56172;DHT22;42052;41.634;-0.946;2022-12-20T11:57:04;21.80;46.50
56172;DHT22;42052;41.634;-0.946;2022-12-20T12:00:02;21.80;46.40
56172;DHT22;42052;41.634;-0.946;2022-12-20T12:02:58;21.80;46.40
56172;DHT22;42052;41.634;-0.946;2022-12-20T12:05:49;21.80;46.40
56172;DHT22;42052;41.634;-0.946;2022-12-20T12:08:54;21.90;46.40
56172;DHT22;42052;41.634;-0.946;2022-12-20T12:11:48;21.90;46.20
56172;DHT22;42052;41.634;-0.946;2022-12-20T12:14:49;21.90;46.30
56172;DHT22;42052;41.634;-0.946;2022-12-20T12:17:46;22.00;46.30
56172;DHT22;42052;41.634;-0.946;2022-12-20T12:24:51;21.90;46.20
56172;DHT22;42052;41.634;-0.946;2022-12-20T12:27:04;22.00;46.20
56172;DHT22;42052;41.634;-0.946;2022-12-20T12:29:51;22.00;46.20
56172;DHT22;42052;41.634;-0.946;2022-12-20T12:32:48;21.90;46.20
56172;DHT22;42052;41.634;-0.946;2022-12-20T12:35:55;21.90;46.20
56172;DHT22;42052;41.634;-0.946;2022-12-20T12:45:18;21.90;46.40
56172;DHT22;42052;41.634;-0.946;2022-12-20T12:48:24;21.90;46.30
56172;DHT22;42052;41.634;-0.946;2022-12-20T12:51:13;21.90;46.20
56172;DHT22;42052;41.634;-0.946;2022-12-20T12:54:20;21.90;46.10
56172;DHT22;42052;41.634;-0.946;2022-12-20T12:57:15;21.90;46.10
56172;DHT22;42052;41.634;-0.946;2022-12-20T13:00:02;22.00;46.20
56172;DHT22;42052;41.634;-0.946;2022-12-20T13:02:49;21.90;46.10
56172;DHT22;42052;41.634;-0.946;2022-12-20T13:05:36;21.90;46.20
56172;DHT22;42052;41.634;-0.946;2022-12-20T13:08:46;21.90;46.20
56172;DHT22;42052;41.634;-0.946;2022-12-20T13:11:37;21.90;46.30
56172;DHT22;42052;41.634;-0.946;2022-12-20T13:19:57;22.00;46.10
56172;DHT22;42052;41.634;-0.946;2022-12-20T13:25:52;22.00;46.10
56172;DHT22;42052;41.634;-0.946;2022-12-20T13:28:44;21.90;46.10
56172;DHT22;42052;41.634;-0.946;2022-12-20T13:31:32;22.00;46.20
56172;DHT22;42052;41.634;-0.946;2022-12-20T13:34:51;22.00;46.20
56172;DHT22;42052;41.634;-0.946;2022-12-20T13:37:58;21.90;46.10
56172;DHT22;42052;41.634;-0.946;2022-12-20T13:41:00;21.90;46.10
56172;DHT22;42052;41.634;-0.946;2022-12-20T13:43:55;21.90;46.10
56172;DHT22;42052;41.634;-0.946;2022-12-20T13:46:51;21.90;46.00
56172;DHT22;42052;41.634;-0.946;2022-12-20T13:49:40;21.90;46.10
56172;DHT22;42052;41.634;-0.946;2022-12-20T13:52:31;22.00;46.10
56172;DHT22;42052;41.634;-0.946;2022-12-20T13:55:37;22.00;46.10
56172;DHT22;42052;41.634;-0.946;2022-12-20T13:58:27;22.00;46.10
56172;DHT22;42052;41.634;-0.946;2022-12-20T14:01:22;22.00;46.10
56172;DHT22;42052;41.634;-0.946;2022-12-20T14:04:09;21.90;46.10
56172;DHT22;42052;41.634;-0.946;2022-12-20T14:06:58;22.00;46.20
56172;DHT22;42052;41.634;-0.946;2022-12-20T14:09:47;22.00;46.20
56172;DHT22;42052;41.634;-0.946;2022-12-20T14:12:43;22.00;46.10
56172;DHT22;42052;41.634;-0.946;2022-12-20T14:15:31;21.90;46.10
56172;DHT22;42052;41.634;-0.946;2022-12-20T14:18:24;21.90;46.20
56172;DHT22;42052;41.634;-0.946;2022-12-20T14:21:10;21.90;46.10
56172;DHT22;42052;41.634;-0.946;2022-12-20T14:23:58;21.90;46.10
56172;DHT22;42052;41.634;-0.946;2022-12-20T14:26:46;21.90;46.10
56172;DHT22;42052;41.634;-0.946;2022-12-20T14:29:34;22.00;46.20
56172;DHT22;42052;41.634;-0.946;2022-12-20T14:32:20;22.00;46.10
56172;DHT22;42052;41.634;-0.946;2022-12-20T14:35:18;21.90;46.10
56172;DHT22;42052;41.634;-0.946;2022-12-20T14:38:04;21.90;46.00
56172;DHT22;42052;41.634;-0.946;2022-12-20T14:40:51;21.90;46.10
56172;DHT22;42052;41.634;-0.946;2022-12-20T14:43:38;21.90;46.10
56172;DHT22;42052;41.634;-0.946;2022-12-20T14:46:24;21.90;46.20
56172;DHT22;42052;41.634;-0.946;2022-12-20T14:49:18;21.90;46.20
56172;DHT22;42052;41.634;-0.946;2022-12-20T14:52:36;21.90;46.20
56172;DHT22;42052;41.634;-0.946;2022-12-20T14:55:35;21.90;46.20
56172;DHT22;42052;41.634;-0.946;2022-12-20T15:01:23;21.90;46.10
56172;DHT22;42052;41.634;-0.946;2022-12-20T15:04:24;21.90;46.10
56172;DHT22;42052;41.634;-0.946;2022-12-20T15:07:29;21.90;46.20
56172;DHT22;42052;41.634;-0.946;2022-12-20T15:10:16;21.90;46.20
56172;DHT22;42052;41.634;-0.946;2022-12-20T15:13:02;21.90;46.10
56172;DHT22;42052;41.634;-0.946;2022-12-20T15:15:48;22.00;46.20
56172;DHT22;42052;41.634;-0.946;2022-12-20T15:18:34;22.00;46.10
56172;DHT22;42052;41.634;-0.946;2022-12-20T15:21:40;21.90;46.10
56172;DHT22;42052;41.634;-0.946;2022-12-20T15:24:28;21.90;46.10
56172;DHT22;42052;41.634;-0.946;2022-12-20T15:27:14;21.90;46.20
56172;DHT22;42052;41.634;-0.946;2022-12-20T15:30:01;21.90;46.20
56172;DHT22;42052;41.634;-0.946;2022-12-20T15:32:47;21.90;46.30
56172;DHT22;42052;41.634;-0.946;2022-12-20T15:35:34;21.90;46.20
56172;DHT22;42052;41.634;-0.946;2022-12-20T15:38:23;21.90;46.20
56172;DHT22;42052;41.634;-0.946;2022-12-20T15:44:12;22.00;46.50
56172;DHT22;42052;41.634;-0.946;2022-12-20T15:46:58;22.00;46.10
56172;DHT22;42052;41.634;-0.946;2022-12-20T15:49:44;21.90;46.10
56172;DHT22;42052;41.634;-0.946;2022-12-20T15:52:30;21.90;46.10
56172;DHT22;42052;41.634;-0.946;2022-12-20T15:55:17;21.90;46.20
56172;DHT22;42052;41.634;-0.946;2022-12-20T15:58:03;21.90;46.10
56172;DHT22;42052;41.634;-0.946;2022-12-20T16:00:52;21.90;46.10
56172;DHT22;42052;41.634;-0.946;2022-12-20T16:03:38;21.90;46.10
56172;DHT22;42052;41.634;-0.946;2022-12-20T16:06:25;21.90;46.10
56172;DHT22;42052;41.634;-0.946;2022-12-20T16:09:11;21.90;46.20
56172;DHT22;42052;41.634;-0.946;2022-12-20T16:11:57;21.90;46.20
56172;DHT22;42052;41.634;-0.946;2022-12-20T16:14:43;21.90;46.10
56172;DHT22;42052;41.634;-0.946;2022-12-20T16:17:29;22.00;46.10
56172;DHT22;42052;41.634;-0.946;2022-12-20T16:20:15;22.00;46.10
56172;DHT22;42052;41.634;-0.946;2022-12-20T16:23:01;22.00;46.00
56172;DHT22;42052;41.634;-0.946;2022-12-20T16:25:49;22.00;46.10
56172;DHT22;42052;41.634;-0.946;2022-12-20T16:28:35;22.00;46.00
56172;DHT22;42052;41.634;-0.946;2022-12-20T16:31:28;22.00;46.00
56172;DHT22;42052;41.634;-0.946;2022-12-20T16:34:17;22.00;46.10
56172;DHT22;42052;41.634;-0.946;2022-12-20T16:37:03;21.90;46.00
56172;DHT22;42052;41.634;-0.946;2022-12-20T16:39:50;21.90;46.20
56172;DHT22;42052;41.634;-0.946;2022-12-20T16:42:36;21.90;46.20
56172;DHT22;42052;41.634;-0.946;2022-12-20T16:45:25;21.90;46.20
56172;DHT22;42052;41.634;-0.946;2022-12-20T16:48:11;21.90;46.30
56172;DHT22;42052;41.634;-0.946;2022-12-20T16:50:58;21.90;46.20
56172;DHT22;42052;41.634;-0.946;2022-12-20T16:53:44;21.90;46.20
56172;DHT22;42052;41.634;-0.946;2022-12-20T16:56:30;21.90;46.20
56172;DHT22;42052;41.634;-0.946;2022-12-20T16:59:16;21.90;46.20
56172;DHT22;42052;41.634;-0.946;2022-12-20T17:02:04;21.90;46.10
56172;DHT22;42052;41.634;-0.946;2022-12-20T17:04:58;22.00;46.00
56172;DHT22;42052;41.634;-0.946;2022-12-20T17:07:44;22.00;46.00
56172;DHT22;42052;41.634;-0.946;2022-12-20T17:10:31;22.10;46.00
56172;DHT22;42052;41.634;-0.946;2022-12-20T17:13:17;22.00;46.00
56172;DHT22;42052;41.634;-0.946;2022-12-20T17:16:03;22.00;46.00
56172;DHT22;42052;41.634;-0.946;2022-12-20T17:18:51;22.00;45.90
56172;DHT22;42052;41.634;-0.946;2022-12-20T17:21:43;22.00;46.00
56172;DHT22;42052;41.634;-0.946;2022-12-20T17:24:30;22.00;46.00
56172;DHT22;42052;41.634;-0.946;2022-12-20T17:27:16;22.00;46.10
56172;DHT22;42052;41.634;-0.946;2022-12-20T17:30:02;22.00;46.10
56172;DHT22;42052;41.634;-0.946;2022-12-20T17:32:49;22.10;46.10
56172;DHT22;42052;41.634;-0.946;2022-12-20T17:35:35;22.10;45.90
56172;DHT22;42052;41.634;-0.946;2022-12-20T17:38:21;22.10;45.80
56172;DHT22;42052;41.634;-0.946;2022-12-20T17:41:25;22.10;45.80
56172;DHT22;42052;41.634;-0.946;2022-12-20T17:47:03;22.10;45.90
56172;DHT22;42052;41.634;-0.946;2022-12-20T17:49:49;22.10;45.90
56172;DHT22;42052;41.634;-0.946;2022-12-20T17:52:35;22.10;45.90
56172;DHT22;42052;41.634;-0.946;2022-12-20T17:55:24;22.10;45.90
56172;DHT22;42052;41.634;-0.946;2022-12-20T17:58:11;22.10;45.80
56172;DHT22;42052;41.634;-0.946;2022-12-20T18:00:57;22.10;45.80
56172;DHT22;42052;41.634;-0.946;2022-12-20T18:03:43;22.10;45.80
56172;DHT22;42052;41.634;-0.946;2022-12-20T18:06:33;22.10;45.80
56172;DHT22;42052;41.634;-0.946;2022-12-20T18:09:20;22.10;45.70
56172;DHT22;42052;41.634;-0.946;2022-12-20T18:12:08;22.10;45.80
56172;DHT22;42052;41.634;-0.946;2022-12-20T18:14:54;22.10;45.80
56172;DHT22;42052;41.634;-0.946;2022-12-20T18:17:41;22.10;45.80
56172;DHT22;42052;41.634;-0.946;2022-12-20T18:20:27;22.10;45.90
56172;DHT22;42052;41.634;-0.946;2022-12-20T18:23:13;22.10;45.80
56172;DHT22;42052;41.634;-0.946;2022-12-20T18:29:00;22.20;45.80
56172;DHT22;42052;41.634;-0.946;2022-12-20T18:31:46;22.20;45.80
56172;DHT22;42052;41.634;-0.946;2022-12-20T18:34:32;22.20;45.80
56172;DHT22;42052;41.634;-0.946;2022-12-20T18:37:18;22.20;46.50
56172;DHT22;42052;41.634;-0.946;2022-12-20T18:40:05;22.10;46.50
56172;DHT22;42052;41.634;-0.946;2022-12-20T18:42:51;22.10;45.80
56172;DHT22;42052;41.634;-0.946;2022-12-20T18:45:37;22.10;45.80
56172;DHT22;42052;41.634;-0.946;2022-12-20T18:48:24;22.10;45.80
56172;DHT22;42052;41.634;-0.946;2022-12-20T18:51:16;22.10;45.80
56172;DHT22;42052;41.634;-0.946;2022-12-20T18:54:04;22.10;45.80
56172;DHT22;42052;41.634;-0.946;2022-12-20T18:56:50;22.20;45.80
56172;DHT22;42052;41.634;-0.946;2022-12-20T18:59:36;22.20;45.70
56172;DHT22;42052;41.634;-0.946;2022-12-20T19:02:23;22.20;45.80
56172;DHT22;42052;41.634;-0.946;2022-12-20T19:05:09;22.20;45.80
56172;DHT22;42052;41.634;-0.946;2022-12-20T19:07:55;22.20;45.80